Time;durP1;ratioP1;P1;durP2;ratioP2;P2;SDS_P1;SDS_P2;PMS_P1;PMS_P2;Temp;Humidity;BMP_temperature;BMP_pressure;BME280_temperature;BME280_humidity;BME280_pressure;Samples;Min_cycle;Max_cycle;Signal;HPM_P1;HPM_P2
2023/06/29 00:01:59;;;;;;;0.40;0.40;;;23.90;51.00;;;24.41;35.10;95113.72;5013386;28;20300;-44
2023/06/29 00:04:26;;;;;;;0.40;0.40;;;23.90;49.80;;;24.38;35.04;95114.28;5014881;28;20640;-45
2023/06/29 00:06:54;;;;;;;0.40;0.40;;;23.80;49.70;;;24.35;35.06;95120.19;5014432;28;20296;-44
2023/06/29 00:09:22;;;;;;;0.60;0.60;;;23.80;49.80;;;24.32;35.10;95114.56;5014322;28;20265;-42
2023/06/29 00:11:50;;;;;;;0.35;0.35;;;23.80;49.70;;;24.29;35.11;95115.91;5012955;28;20247;-43
2023/06/29 00:14:17;;;;;;;0.30;0.30;;;23.70;49.70;;;24.26;35.18;95116.47;5013944;28;20280;-44
2023/06/29 00:16:44;;;;;;;0.40;0.40;;;23.70;49.80;;;24.25;35.26;95117.53;5013425;28;20197;-43
2023/06/29 00:19:14;;;;;;;0.30;0.30;;;23.70;49.90;;;24.22;35.30;95121.56;5014777;28;20637;-43
2023/06/29 00:21:42;;;;;;;0.30;0.30;;;23.70;49.90;;;24.19;35.04;95124.00;5014255;28;20209;-43
2023/06/29 00:24:12;;;;;;;0.30;0.30;;;23.70;49.80;;;24.16;35.16;95119.97;5013971;28;20265;-42
2023/06/29 00:26:39;;;;;;;0.35;0.35;;;23.60;49.80;;;24.12;35.27;95117.03;5014305;28;20212;-42
2023/06/29 00:29:06;;;;;;;0.32;0.32;;;23.60;49.80;;;24.10;35.09;95115.72;5014112;28;20201;-41
2023/06/29 00:31:35;;;;;;;0.32;0.32;;;23.60;50.00;;;24.08;35.21;95113.31;4996912;28;20588;-40
2023/06/29 00:34:02;;;;;;;0.30;0.30;;;23.50;50.00;;;24.07;35.56;95113.56;5014070;28;20253;-41
2023/06/29 00:36:32;;;;;;;0.30;0.30;;;23.50;50.10;;;24.06;35.65;95120.00;5013036;28;20285;-41
2023/06/29 00:38:59;;;;;;;0.30;0.30;;;23.50;50.10;;;24.06;35.47;95117.31;5013125;28;20198;-40
2023/06/29 00:41:26;;;;;;;0.40;0.40;;;23.50;50.10;;;24.04;35.32;95114.13;5013762;28;20230;-41
2023/06/29 00:43:53;;;;;;;0.30;0.30;;;23.50;50.00;;;24.01;35.35;95110.13;5013889;28;20693;-41
2023/06/29 00:46:20;;;;;;;0.40;0.40;;;23.50;50.00;;;23.98;35.71;95113.31;5012893;28;20580;-42
2023/06/29 00:48:48;;;;;;;0.40;0.40;;;23.50;49.90;;;23.94;35.42;95109.59;5012985;28;20261;-41
2023/06/29 00:51:16;;;;;;;0.40;0.40;;;23.50;49.80;;;23.92;35.28;95109.03;5013528;28;20243;-41
2023/06/29 00:53:44;;;;;;;0.35;0.35;;;23.40;49.90;;;23.89;35.73;95106.88;4996739;28;20295;-41
2023/06/29 00:56:12;;;;;;;0.30;0.30;;;23.40;49.90;;;23.85;35.27;95109.28;5013891;28;20207;-41
2023/06/29 00:58:40;;;;;;;0.40;0.40;;;23.30;49.80;;;23.83;34.94;95106.91;5012740;28;20687;-41
2023/06/29 01:01:07;;;;;;;0.40;0.40;;;23.30;49.80;;;23.82;35.36;95104.50;5013507;28;20193;-42
2023/06/29 01:03:36;;;;;;;0.30;0.30;;;23.30;49.90;;;23.81;35.45;95102.88;5013863;28;20253;-41
2023/06/29 01:06:06;;;;;;;0.32;0.32;;;23.30;50.20;;;23.80;35.52;95101.28;5013522;28;20193;-41
2023/06/29 01:08:42;;;;;;;0.30;0.30;;;23.20;50.10;;;23.78;35.51;95101.56;4996492;28;20616;-42
2023/06/29 01:11:10;;;;;;;0.40;0.40;;;23.20;50.20;;;23.78;35.76;95100.75;5013293;28;20283;-42
2023/06/29 01:13:40;;;;;;;0.40;0.40;;;23.20;50.20;;;23.76;35.84;95095.66;5013423;28;20193;-43
2023/06/29 01:16:08;;;;;;;0.40;0.40;;;23.20;50.10;;;23.75;35.70;95098.63;5012790;28;20192;-41
2023/06/29 01:18:37;;;;;;;0.30;0.30;;;23.20;50.10;;;23.73;35.71;95095.41;5013895;28;20254;-42
2023/06/29 01:21:04;;;;;;;0.30;0.30;;;23.20;49.90;;;23.70;35.37;95096.75;5013282;28;20223;-42
2023/06/29 01:23:36;;;;;;;0.40;0.40;;;23.20;50.00;;;23.67;35.53;95091.94;5012131;28;20330;-41
2023/06/29 01:26:05;;;;;;;0.30;0.30;;;23.20;50.00;;;23.66;35.48;95093.00;5012953;28;20242;-41
2023/06/29 01:28:38;;;;;;;0.32;0.32;;;23.20;50.00;;;23.63;35.77;95091.69;5013210;28;20197;-40
2023/06/29 01:31:09;;;;;;;0.30;0.30;;;23.20;50.10;;;23.61;35.46;95085.00;5013486;28;20212;-44
2023/06/29 01:33:36;;;;;;;0.40;0.40;;;23.10;50.00;;;23.59;35.81;95089.81;5013113;28;20211;-40
2023/06/29 01:36:16;;;;;;;0.40;0.40;;;23.10;50.20;;;23.57;35.76;95083.91;5013364;28;20263;-41
2023/06/29 01:38:52;;;;;;;0.43;0.43;;;23.10;50.30;;;23.56;35.82;95087.66;5012340;28;20238;-41
2023/06/29 01:41:21;;;;;;;0.30;0.30;;;23.10;50.50;;;23.56;35.91;95088.47;5012377;28;20216;-42
2023/06/29 01:43:50;;;;;;;0.32;0.32;;;23.10;50.40;;;23.57;35.49;95083.91;5012279;28;20640;-43
2023/06/29 01:46:19;;;;;;;0.30;0.30;;;23.10;50.50;;;23.56;36.17;95087.66;5012100;28;20227;-41
2023/06/29 01:48:47;;;;;;;0.40;0.40;;;23.10;50.50;;;23.53;36.30;95086.31;5012676;28;20189;-47
2023/06/29 01:51:14;;;;;;;0.40;0.40;;;23.10;50.60;;;23.55;35.96;95091.44;4996225;28;20244;-40
2023/06/29 01:53:41;;;;;;;0.40;0.40;;;23.10;50.50;;;23.55;36.17;95084.19;5012930;28;20216;-42
2023/06/29 01:56:08;;;;;;;0.30;0.30;;;23.10;50.50;;;23.54;36.17;95090.59;5011920;28;20296;-45
2023/06/29 01:58:35;;;;;;;0.30;0.30;;;23.10;50.60;;;23.53;36.01;95089.00;5011827;28;20678;-46
2023/06/29 02:01:03;;;;;;;0.40;0.40;;;23.10;50.40;;;23.51;36.03;95083.13;5011588;28;20205;-49
2023/06/29 02:03:30;;;;;;;0.38;0.38;;;23.10;50.50;;;23.49;35.86;95079.91;5011720;28;20211;-46
2023/06/29 02:05:57;;;;;;;0.30;0.30;;;23.10;50.40;;;23.47;36.01;95093.56;5011711;28;20216;-46
2023/06/29 02:08:24;;;;;;;0.30;0.30;;;23.00;50.20;;;23.44;35.90;95086.06;5011668;28;20201;-48
2023/06/29 02:10:52;;;;;;;0.30;0.30;;;23.00;50.30;;;23.41;35.95;95078.59;5011590;28;20197;-42
2023/06/29 02:13:19;;;;;;;0.30;0.30;;;23.00;50.20;;;23.39;36.03;95080.72;5012539;28;20256;-43
2023/06/29 02:15:46;;;;;;;0.40;0.40;;;23.00;50.20;;;23.35;35.98;95079.63;5012505;28;20185;-43
2023/06/29 02:18:13;;;;;;;0.40;0.40;;;23.00;50.20;;;23.30;36.24;95075.13;5012459;28;20188;-42
2023/06/29 02:20:41;;;;;;;0.35;0.35;;;23.00;50.30;;;23.32;36.17;95083.66;5012515;28;20278;-42
2023/06/29 02:23:08;;;;;;;0.40;0.40;;;23.00;50.20;;;23.28;35.98;95079.13;5011317;28;20708;-43
2023/06/29 02:25:35;;;;;;;0.30;0.30;;;22.90;50.00;;;23.26;36.12;95089.28;5012347;28;20196;-42
2023/06/29 02:28:02;;;;;;;0.40;0.40;;;22.90;50.10;;;23.24;35.87;95086.06;5011494;28;20526;-41
2023/06/29 02:30:29;;;;;;;0.32;0.32;;;22.90;51.30;;;23.22;36.18;95080.19;5012335;28;20189;-41
2023/06/29 02:32:56;;;;;;;0.40;0.40;;;22.90;50.10;;;23.19;35.94;95089.53;4995418;28;20270;-43
2023/06/29 02:35:24;;;;;;;0.35;0.35;;;22.90;50.10;;;23.19;35.88;95086.88;5012665;28;20207;-43
2023/06/29 02:37:51;;;;;;;0.30;0.30;;;22.80;50.00;;;23.16;35.85;95085.53;5017851;28;20250;-42
2023/06/29 02:40:19;;;;;;;0.30;0.30;;;22.80;50.00;;;23.13;36.09;95088.72;5017826;28;20201;-42
2023/06/29 02:42:46;;;;;;;0.35;0.35;;;22.80;50.00;;;23.11;36.25;95085.50;5017677;28;20295;-44
2023/06/29 02:45:14;;;;;;;0.40;0.40;;;22.80;50.00;;;23.10;35.93;95093.81;5018021;28;20201;-41
2023/06/29 02:47:41;;;;;;;0.40;0.40;;;22.80;50.00;;;23.08;36.03;95090.59;5017747;28;20208;-39
2023/06/29 02:50:09;;;;;;;0.30;0.30;;;22.80;50.00;;;23.04;35.98;95084.97;5001494;28;20313;-40
2023/06/29 02:52:43;;;;;;;0.40;0.40;;;22.80;50.00;;;23.02;36.15;95087.09;5033994;28;20216;-43
2023/06/29 02:55:10;;;;;;;0.30;0.30;;;22.80;50.10;;;22.98;36.24;95078.00;5018735;28;20194;-40
2023/06/29 02:57:39;;;;;;;0.30;0.30;;;22.70;50.00;;;22.97;35.93;95085.25;5018841;28;20272;-41
2023/06/29 03:00:08;;;;;;;0.40;0.40;;;22.70;49.90;;;22.94;36.21;95080.41;5017824;28;20298;-43
2023/06/29 03:02:37;;;;;;;0.40;0.40;;;22.70;49.90;;;22.93;36.21;95094.06;5033899;28;20201;-40
2023/06/29 03:05:05;;;;;;;0.30;0.30;;;22.70;50.00;;;22.91;36.04;95088.16;5001400;28;20216;-40
2023/06/29 03:07:32;;;;;;;0.30;0.30;;;22.70;50.00;;;22.90;36.01;95087.38;5018131;28;20207;-42
2023/06/29 03:10:01;;;;;;;0.40;0.40;;;22.60;49.90;;;22.91;36.16;95088.16;5018665;28;20301;-42
2023/06/29 03:12:28;;;;;;;0.40;0.40;;;22.60;49.90;;;22.89;35.94;95084.94;5017493;28;20529;-43
2023/06/29 03:14:55;;;;;;;0.40;0.40;;;22.60;50.00;;;22.88;35.99;95086.03;5017742;28;20683;-42
2023/06/29 03:17:24;;;;;;;0.40;0.40;;;22.60;50.00;;;22.87;36.21;95090.56;5018322;28;20271;-40
2023/06/29 03:19:51;;;;;;;0.30;0.30;;;22.60;50.00;;;22.86;36.01;95087.09;5018824;28;20689;-40
2023/06/29 03:22:19;;;;;;;0.32;0.32;;;22.60;50.10;;;22.84;36.13;95083.09;5017186;28;20269;-40
2023/06/29 03:24:46;;;;;;;0.40;0.40;;;22.60;50.00;;;22.84;35.90;95083.88;5018090;28;20576;-41
2023/06/29 03:27:13;;;;;;;0.45;0.45;;;22.50;50.00;;;22.83;36.21;95087.63;5018451;28;20242;-41
2023/06/29 03:29:40;;;;;;;0.40;0.40;;;22.50;50.00;;;22.82;36.13;95085.22;5018179;28;20199;-44
2023/06/29 03:32:08;;;;;;;0.40;0.40;;;22.50;50.10;;;22.82;36.00;95093.25;5017291;28;20228;-41
2023/06/29 03:34:36;;;;;;;0.50;0.50;;;22.40;50.10;;;22.80;36.22;95095.38;5018257;28;20203;-45
2023/06/29 03:37:03;;;;;;;0.40;0.40;;;22.40;50.00;;;22.80;35.71;95082.00;5018586;28;20209;-42
2023/06/29 03:39:31;;;;;;;0.40;0.40;;;22.40;50.20;;;22.78;36.22;95081.47;5018037;28;20709;-42
2023/06/29 03:41:58;;;;;;;0.45;0.45;;;22.40;50.20;;;22.77;35.92;95079.88;5001075;28;20190;-43
2023/06/29 03:44:26;;;;;;;0.40;0.40;;;22.40;50.20;;;22.76;36.14;95078.25;5018012;28;20292;-43
2023/06/29 03:46:53;;;;;;;0.40;0.40;;;22.40;50.30;;;22.75;36.18;95087.34;5031819;28;20209;-45
2023/06/29 03:49:20;;;;;;;0.43;0.43;;;22.40;50.40;;;22.73;35.98;95095.63;5014371;28;20197;-41
2023/06/29 03:51:47;;;;;;;0.30;0.30;;;22.30;50.30;;;22.71;36.31;95087.84;5015196;28;20580;-40
2023/06/29 03:54:14;;;;;;;0.40;0.40;;;22.40;50.40;;;22.72;36.60;95094.03;5014679;28;20222;-40
2023/06/29 03:56:41;;;;;;;0.40;0.40;;;22.40;50.40;;;22.70;36.34;95093.47;5014893;28;20227;-40
2023/06/29 03:59:08;;;;;;;0.40;0.40;;;22.30;50.30;;;22.68;36.08;95087.59;5014594;28;20630;-46
2023/06/29 04:01:35;;;;;;;0.30;0.30;;;22.30;50.40;;;22.67;36.30;95089.47;5014596;28;20197;-41
2023/06/29 04:04:02;;;;;;;0.40;0.40;;;22.30;51.70;;;22.67;36.35;95089.47;5013494;28;20212;-40
2023/06/29 04:06:29;;;;;;;0.40;0.40;;;22.30;50.50;;;22.66;36.41;95095.09;5014708;28;20234;-40
2023/06/29 04:08:57;;;;;;;0.40;0.40;;;22.30;50.40;;;22.65;36.58;95088.13;5014416;28;20651;-41
2023/06/29 04:11:24;;;;;;;0.40;0.40;;;22.30;50.40;;;22.64;36.52;95091.84;5013354;28;20242;-40
2023/06/29 04:13:51;;;;;;;0.35;0.35;;;22.30;50.50;;;22.63;36.37;95096.41;5014253;28;20283;-41
2023/06/29 04:16:18;;;;;;;0.40;0.40;;;22.30;50.40;;;22.63;36.71;95093.75;5015118;28;20223;-39
2023/06/29 04:18:45;;;;;;;0.40;0.40;;;22.30;50.50;;;22.62;36.40;95094.81;5014541;28;20197;-39
2023/06/29 04:21:12;;;;;;;0.40;0.40;;;22.30;50.50;;;22.62;36.73;95096.66;5014227;28;20237;-42
2023/06/29 04:23:39;;;;;;;0.40;0.40;;;22.30;50.60;;;22.62;36.42;95099.31;5014007;28;20234;-40
2023/06/29 04:26:09;;;;;;;0.32;0.32;;;22.30;50.50;;;22.62;36.56;95094.81;5014450;28;20212;-40
2023/06/29 04:28:36;;;;;;;0.30;0.30;;;22.30;50.60;;;22.61;36.71;95095.88;5014141;28;20276;-40
2023/06/29 04:31:04;;;;;;;0.30;0.30;;;22.30;50.70;;;22.63;36.64;95098.25;5013307;28;20191;-42
2023/06/29 04:33:31;;;;;;;0.40;0.40;;;22.30;50.70;;;22.63;36.64;95093.75;5014091;28;20234;-41
2023/06/29 04:35:58;;;;;;;0.40;0.40;;;22.40;50.80;;;22.65;36.56;95096.13;5014033;28;20195;-42
2023/06/29 04:38:27;;;;;;;0.40;0.40;;;22.30;50.70;;;22.63;36.58;95090.25;5013059;28;20206;-41
2023/06/29 04:41:03;;;;;;;0.40;0.40;;;22.30;50.80;;;22.65;36.71;95099.59;5013970;28;20184;-41
2023/06/29 04:43:31;;;;;;;0.40;0.40;;;22.30;50.80;;;22.65;36.46;95099.59;5013860;28;20189;-43
2023/06/29 04:46:01;;;;;;;0.47;0.47;;;22.40;51.00;;;22.67;36.55;95096.69;5014148;28;20203;-43
2023/06/29 04:48:36;;;;;;;0.40;0.40;;;22.40;51.00;;;22.68;36.75;95099.09;5013033;28;20183;-42
2023/06/29 04:51:05;;;;;;;0.38;0.38;;;22.40;51.00;;;22.68;36.71;95085.72;5013666;28;20177;-44
2023/06/29 04:53:36;;;;;;;0.30;0.30;;;22.40;51.00;;;22.69;36.82;95086.50;5013953;28;20226;-41
2023/06/29 04:56:04;;;;;;;0.40;0.40;;;22.40;51.10;;;22.70;36.75;95088.94;5012940;28;20183;-44
2023/06/29 04:58:31;;;;;;;0.30;0.30;;;22.40;51.10;;;22.71;36.76;95093.19;5013875;28;20195;-41
2023/06/29 05:00:59;;;;;;;0.40;0.40;;;22.40;51.10;;;22.73;37.00;95089.47;5013568;28;20630;-43
2023/06/29 05:03:27;;;;;;;0.35;0.35;;;22.40;51.10;;;22.74;37.12;95091.06;5012684;28;20626;-42
2023/06/29 05:05:54;;;;;;;0.40;0.40;;;22.40;51.10;;;22.73;37.12;95087.59;5013560;28;20629;-43
2023/06/29 05:08:21;;;;;;;0.40;0.40;;;22.40;51.10;;;22.74;36.78;95086.56;5013586;28;20280;-42
2023/06/29 05:10:48;;;;;;;0.30;0.30;;;22.40;51.20;;;22.75;37.23;95082.00;5013544;28;20246;-42
2023/06/29 05:13:15;;;;;;;0.40;0.40;;;22.40;51.20;;;22.76;36.81;95086.28;5013379;28;20219;-47
2023/06/29 05:15:47;;;;;;;0.40;0.40;;;22.40;51.10;;;22.77;36.83;95082.53;5013466;28;20617;-41
2023/06/29 05:18:15;;;;;;;0.40;0.40;;;22.50;51.30;;;22.78;37.05;95084.16;5013531;28;20268;-41
2023/06/29 05:20:42;;;;;;;0.30;0.30;;;22.50;51.30;;;22.78;36.90;95081.47;5013692;28;20261;-44
2023/06/29 05:23:11;;;;;;;0.30;0.30;;;22.50;51.10;;;22.78;37.17;95082.25;5012421;28;20598;-41
2023/06/29 05:25:39;;;;;;;0.30;0.30;;;22.50;51.20;;;22.81;37.16;95078.25;5013349;28;20192;-43
2023/06/29 05:28:07;;;;;;;0.30;0.30;;;22.50;51.20;;;22.82;37.01;95082.53;5012689;28;20216;-42
2023/06/29 05:30:34;;;;;;;0.40;0.40;;;22.50;51.20;;;22.81;37.02;95081.75;5012288;28;20291;-42
2023/06/29 05:33:03;;;;;;;0.32;0.32;;;22.60;51.40;;;22.84;37.34;95075.84;5013414;28;20646;-41
2023/06/29 05:35:31;;;;;;;0.32;0.32;;;22.60;51.30;;;22.85;37.04;95077.47;5013337;28;20192;-41
2023/06/29 05:37:58;;;;;;;0.30;0.30;;;22.60;51.40;;;22.88;37.25;95075.34;5013073;28;20204;-41
2023/06/29 05:40:26;;;;;;;0.47;0.47;;;22.60;51.40;;;22.89;37.42;95074.25;5012976;28;20597;-42
2023/06/29 05:42:53;;;;;;;0.38;0.38;;;22.60;51.50;;;22.90;37.27;95076.69;5012153;28;20240;-41
2023/06/29 05:45:20;;;;;;;0.40;0.40;;;22.60;51.50;;;22.86;37.15;95068.38;5012533;28;20292;-42
2023/06/29 05:47:48;;;;;;;0.30;0.30;;;22.60;51.70;;;22.93;37.64;95078.00;5013254;28;20197;-46
2023/06/29 05:50:16;;;;;;;0.30;0.30;;;22.70;51.70;;;22.95;37.48;95082.03;5012935;28;20210;-39
2023/06/29 05:52:43;;;;;;;0.35;0.35;;;22.70;51.60;;;22.97;37.35;95079.91;5011857;28;20204;-39
2023/06/29 05:55:10;;;;;;;0.30;0.30;;;22.70;51.70;;;23.00;37.59;95081.22;5012825;28;20721;-39
2023/06/29 05:57:38;;;;;;;0.40;0.40;;;22.70;51.70;;;23.01;37.50;95083.63;4996094;28;20561;-38
2023/06/29 06:00:11;;;;;;;0.30;0.30;;;22.70;51.70;;;23.02;37.32;95084.41;5012855;28;20186;-38
2023/06/29 06:02:40;;;;;;;0.30;0.30;;;22.80;51.90;;;23.05;37.36;95083.13;5012133;28;20190;-39
2023/06/29 06:05:08;;;;;;;0.38;0.38;;;22.80;51.90;;;23.07;37.66;95083.63;5025544;28;20675;-39
2023/06/29 06:07:35;;;;;;;0.40;0.40;;;22.80;51.90;;;23.08;37.56;95082.56;5047999;28;20646;-40
2023/06/29 06:10:03;;;;;;;0.30;0.30;;;22.80;51.90;;;23.11;37.58;95087.41;5031167;28;20253;-40
2023/06/29 06:12:30;;;;;;;0.35;0.35;;;22.80;52.00;;;23.12;37.50;95086.31;5031898;28;20755;-40
